Archival Weather

Nairobi Jkia

Nairobi Jkia, Kenya (HKJK)

Report from: Sunday, March 19, 2023 5:30 AM EAT
Current time: Saturday, June 22, 2024 3:31 AM EAT

Current weather – Weather history – Daily summaries
Weather forecast

Temperature18.0°C (64.4°F)
Dew point16.0°C (60.8°F)
Winds 5 kts (2.6 m/s, 5.8 mph) Northeast (50°)
Visibility6.2 mi. (10 km)
Clouds Ceiling: Broken clouds 1,900 ft. (579 m)
Altimeter30.15 in.Hg (1021 mB)
Relative humidity88 %
Density altitude341 ft. (104 m)
Remarks No significant changes expected in the next two hours
Flight conditions Marginal Visual Meteorological Conditions
Raw dataHKJK 190230Z 05005KT 9999 BKN019 18/16 Q1021 NOSIG
An error has occurred. This application may no longer respond until reloaded. Reload 🗙